createdAt,value
2022-11-09T00:01:11.762Z,8.33
2022-11-09T00:03:41.338Z,8.22
2022-11-09T00:06:11.107Z,7.95
2022-11-09T00:08:41.215Z,7.90
2022-11-09T00:11:11.878Z,7.88
2022-11-09T00:13:44.301Z,8.04
2022-11-09T00:16:15.922Z,7.95
2022-11-09T00:18:47.525Z,7.89
2022-11-09T00:21:18.230Z,7.97
2022-11-09T00:23:48.277Z,7.93
2022-11-09T00:26:18.998Z,7.91
2022-11-09T00:28:50.707Z,7.99
2022-11-09T00:31:21.027Z,8.12
2022-11-09T00:33:51.032Z,8.07
2022-11-09T00:36:21.133Z,7.97
2022-11-09T00:38:51.457Z,7.71
2022-11-09T00:41:21.506Z,7.91
2022-11-09T00:43:53.325Z,7.73
2022-11-09T00:46:23.381Z,7.81
2022-11-09T00:48:55.730Z,7.93
2022-11-09T00:51:25.547Z,7.96
2022-11-09T00:53:58.542Z,7.84
2022-11-09T00:56:28.037Z,7.82
2022-11-09T00:58:58.872Z,7.86
2022-11-09T01:01:28.615Z,7.83
2022-11-09T01:03:58.225Z,7.83
2022-11-09T01:06:27.765Z,7.78
2022-11-09T01:08:57.295Z,7.77
2022-11-09T01:11:26.841Z,7.73
2022-11-09T01:13:59.668Z,7.73
2022-11-09T01:16:29.658Z,7.75
2022-11-09T01:18:59.918Z,7.72
2022-11-09T01:21:29.462Z,7.65
2022-11-09T01:24:00.003Z,7.70
2022-11-09T01:26:29.799Z,7.59
2022-11-09T01:29:00.604Z,7.51
2022-11-09T01:31:30.312Z,7.43
2022-11-09T01:33:59.890Z,7.36
2022-11-09T01:36:30.015Z,7.40
2022-11-09T01:38:59.558Z,7.31
2022-11-09T01:41:29.969Z,7.35
2022-11-09T01:44:08.364Z,7.35
2022-11-09T01:46:40.507Z,7.38
2022-11-09T01:49:13.528Z,7.18
2022-11-09T01:51:44.702Z,7.26
2022-11-09T01:54:17.205Z,7.35
2022-11-09T01:56:48.698Z,7.28
2022-11-09T01:59:21.209Z,7.19
2022-11-09T02:01:51.120Z,7.08
2022-11-09T02:04:23.438Z,7.00
2022-11-09T02:06:55.587Z,7.12
2022-11-09T02:09:27.923Z,7.14
2022-11-09T02:11:58.015Z,7.11
2022-11-09T02:14:30.575Z,7.01
2022-11-09T02:17:00.901Z,7.06
2022-11-09T02:19:30.546Z,7.14
2022-11-09T02:22:01.428Z,7.13
2022-11-09T02:24:31.123Z,7.21
2022-11-09T02:27:00.971Z,7.30
2022-11-09T02:29:38.300Z,7.42
2022-11-09T02:32:11.035Z,7.49
2022-11-09T02:34:40.546Z,7.56
2022-11-09T02:37:11.470Z,7.46
2022-11-09T02:39:41.080Z,7.47
2022-11-09T02:42:16.952Z,7.54
2022-11-09T02:44:50.629Z,7.58
2022-11-09T02:47:20.145Z,7.59
2022-11-09T02:49:50.187Z,7.56
2022-11-09T02:52:21.082Z,7.37
2022-11-09T02:54:50.801Z,7.10
2022-11-09T02:57:20.322Z,6.93
2022-11-09T02:59:49.859Z,7.00
2022-11-09T03:02:19.328Z,7.10
2022-11-09T03:04:48.855Z,7.18
2022-11-09T03:07:18.425Z,7.25
2022-11-09T03:09:49.598Z,7.11
2022-11-09T03:12:32.851Z,7.27
2022-11-09T03:15:03.831Z,7.47
2022-11-09T03:17:33.858Z,7.59
2022-11-09T03:20:03.383Z,7.66
2022-11-09T03:22:32.972Z,7.69
2022-11-09T03:25:03.932Z,7.67
2022-11-09T03:27:33.515Z,7.61
2022-11-09T03:30:06.921Z,7.55
2022-11-09T03:32:36.493Z,7.42
2022-11-09T03:35:06.456Z,7.26
2022-11-09T03:37:36.335Z,7.29
2022-11-09T03:40:08.080Z,7.31
2022-11-09T03:42:37.657Z,7.12
2022-11-09T03:45:07.604Z,7.22
2022-11-09T03:47:38.135Z,7.22
2022-11-09T03:50:09.176Z,7.23
2022-11-09T03:52:38.743Z,7.14
2022-11-09T03:55:10.369Z,7.04
2022-11-09T03:57:40.063Z,6.85
2022-11-09T04:00:10.159Z,6.87
2022-11-09T04:02:40.066Z,6.86
2022-11-09T04:05:10.173Z,6.69
2022-11-09T04:07:39.953Z,6.71
2022-11-09T04:10:11.133Z,6.74
2022-11-09T04:12:41.237Z,6.68
2022-11-09T04:15:12.014Z,6.68
2022-11-09T04:17:42.248Z,6.59
2022-11-09T04:20:12.128Z,6.66
2022-11-09T04:22:41.802Z,6.66
2022-11-09T04:25:13.062Z,6.36
2022-11-09T04:27:42.624Z,6.33
2022-11-09T04:30:12.401Z,6.45
2022-11-09T04:32:42.029Z,6.37
2022-11-09T04:35:11.573Z,6.41
2022-11-09T04:37:41.144Z,6.54
2022-11-09T04:40:13.133Z,6.61
2022-11-09T04:42:42.715Z,6.62
2022-11-09T04:45:12.348Z,6.64
2022-11-09T04:47:42.012Z,6.56
2022-11-09T04:50:12.001Z,6.43
2022-11-09T04:52:41.560Z,6.53
2022-11-09T04:55:12.452Z,6.56
2022-11-09T04:57:42.033Z,6.69
2022-11-09T05:00:11.984Z,6.62
2022-11-09T05:02:41.448Z,6.69
2022-11-09T05:05:11.012Z,6.74
2022-11-09T05:07:40.663Z,6.65
2022-11-09T05:10:10.333Z,6.66
2022-11-09T05:12:45.735Z,6.54
2022-11-09T05:15:16.698Z,6.77
2022-11-09T05:17:46.337Z,6.86
2022-11-09T05:20:16.440Z,6.93
2022-11-09T05:23:03.468Z,6.96
2022-11-09T05:25:32.986Z,6.93
2022-11-09T05:28:03.908Z,6.94
2022-11-09T05:30:33.508Z,7.05
2022-11-09T05:33:03.197Z,7.09
2022-11-09T05:35:33.376Z,7.17
2022-11-09T05:38:02.909Z,7.08
2022-11-09T05:40:33.519Z,6.99
2022-11-09T05:43:04.564Z,7.08
2022-11-09T05:45:42.447Z,7.10
2022-11-09T05:48:13.208Z,7.11
2022-11-09T05:50:43.236Z,7.08
2022-11-09T05:53:13.161Z,7.09
2022-11-09T05:55:42.731Z,7.29
2022-11-09T05:58:16.937Z,7.28
2022-11-09T06:00:46.546Z,7.32
2022-11-09T06:03:16.126Z,7.42
2022-11-09T06:05:45.634Z,7.43
2022-11-09T06:08:15.943Z,7.48
2022-11-09T06:10:45.425Z,7.48
2022-11-09T06:13:14.974Z,7.46
2022-11-09T06:15:45.904Z,7.55
2022-11-09T06:18:15.482Z,7.49
2022-11-09T06:20:45.040Z,7.45
2022-11-09T06:23:14.526Z,7.61
2022-11-09T06:25:44.259Z,7.57
2022-11-09T06:28:13.751Z,7.67
2022-11-09T06:30:43.296Z,7.73
2022-11-09T06:33:14.681Z,7.95
2022-11-09T06:35:44.248Z,7.78
2022-11-09T06:38:13.950Z,7.95
2022-11-09T06:40:43.436Z,8.01
2022-11-09T06:43:13.129Z,8.00
2022-11-09T06:45:42.686Z,8.06
2022-11-09T06:48:12.737Z,8.10
2022-11-09T06:50:43.725Z,8.22
2022-11-09T06:53:15.647Z,8.33
2022-11-09T06:55:50.224Z,8.37
2022-11-09T06:58:20.856Z,8.41
2022-11-09T07:00:50.424Z,8.39
2022-11-09T07:03:20.903Z,8.34
2022-11-09T07:05:53.187Z,8.50
2022-11-09T07:08:22.912Z,8.48
2022-11-09T07:10:52.469Z,8.56
2022-11-09T07:13:22.844Z,8.68
2022-11-09T07:15:54.438Z,8.73
2022-11-09T07:18:24.006Z,8.88
2022-11-09T07:20:54.968Z,9.01
2022-11-09T07:23:24.550Z,9.15
2022-11-09T07:25:54.542Z,9.24
2022-11-09T07:28:24.242Z,9.37
2022-11-09T07:30:53.882Z,9.46
2022-11-09T07:33:23.992Z,9.49
2022-11-09T07:35:55.105Z,9.49
2022-11-09T07:38:24.687Z,9.53
2022-11-09T07:40:54.395Z,9.54
2022-11-09T07:43:24.017Z,9.66
2022-11-09T07:45:53.557Z,9.72
2022-11-09T07:48:23.106Z,9.76
2022-11-09T07:50:52.790Z,9.99
2022-11-09T07:53:23.925Z,10.14
2022-11-09T07:55:57.991Z,10.22
2022-11-09T07:58:27.502Z,10.36
2022-11-09T08:00:58.061Z,10.44
2022-11-09T08:03:28.298Z,10.51
2022-11-09T08:05:58.076Z,10.58
2022-11-09T08:08:28.974Z,10.56
2022-11-09T08:10:59.808Z,10.67
2022-11-09T08:13:29.830Z,10.85
2022-11-09T08:16:01.809Z,10.97
2022-11-09T08:18:31.626Z,11.03
2022-11-09T08:21:02.514Z,11.08
2022-11-09T08:23:33.435Z,11.18
2022-11-09T08:26:03.518Z,11.25
2022-11-09T08:28:33.593Z,11.37
2022-11-09T08:31:04.797Z,11.40
2022-11-09T08:33:36.238Z,11.51
2022-11-09T08:36:09.739Z,11.58
2022-11-09T08:38:40.607Z,11.65
2022-11-09T08:41:13.587Z,11.73
2022-11-09T08:43:43.502Z,11.79
2022-11-09T08:46:13.074Z,11.87
2022-11-09T08:48:42.632Z,11.96
2022-11-09T08:51:12.176Z,12.00
2022-11-09T08:53:43.063Z,12.06
2022-11-09T08:56:13.046Z,12.14
2022-11-09T08:58:42.682Z,12.24
2022-11-09T09:01:16.992Z,12.24
2022-11-09T09:03:47.812Z,12.28
2022-11-09T09:06:17.387Z,12.35
2022-11-09T09:08:48.222Z,12.43
2022-11-09T09:11:19.447Z,12.48
2022-11-09T09:13:49.651Z,12.52
2022-11-09T09:16:19.796Z,12.55
2022-11-09T09:18:49.772Z,12.65
2022-11-09T09:21:19.441Z,12.67
2022-11-09T09:23:50.530Z,12.77
2022-11-09T09:26:20.098Z,12.81
2022-11-09T09:28:49.678Z,12.81
2022-11-09T09:31:19.522Z,12.86
2022-11-09T09:33:49.231Z,12.93
2022-11-09T09:36:23.298Z,12.95
2022-11-09T09:38:54.796Z,13.01
2022-11-09T09:41:25.440Z,13.05
2022-11-09T09:43:56.419Z,13.12
2022-11-09T09:46:27.689Z,13.20
2022-11-09T09:48:59.583Z,13.24
2022-11-09T09:51:33.713Z,13.33
2022-11-09T09:54:09.239Z,13.39
2022-11-09T09:56:40.411Z,13.44
2022-11-09T09:59:13.368Z,13.54
2022-11-09T10:01:44.460Z,13.62
2022-11-09T10:04:25.409Z,13.65
2022-11-09T10:07:00.556Z,13.80
2022-11-09T10:09:39.299Z,13.83
2022-11-09T10:12:16.057Z,13.89
2022-11-09T10:14:57.081Z,13.88
2022-11-09T10:17:33.112Z,13.98
2022-11-09T10:20:09.480Z,14.02
2022-11-09T10:22:42.855Z,14.03
2022-11-09T10:25:27.406Z,14.12
2022-11-09T10:28:12.987Z,14.13
2022-11-09T10:30:43.039Z,14.16
2022-11-09T10:33:16.487Z,14.20
2022-11-09T10:35:47.520Z,14.27
2022-11-09T10:38:19.479Z,14.31
2022-11-09T10:40:53.510Z,14.29
2022-11-09T10:43:24.668Z,14.30
2022-11-09T10:45:59.773Z,14.35
2022-11-09T10:48:34.093Z,14.41
2022-11-09T10:51:04.094Z,14.40
2022-11-09T10:53:34.944Z,14.40
2022-11-09T10:56:19.954Z,14.38
2022-11-09T10:58:51.370Z,14.44
2022-11-09T11:01:22.991Z,14.51
2022-11-09T11:03:53.429Z,14.55
2022-11-09T11:06:28.430Z,14.61
2022-11-09T11:09:12.880Z,14.63
2022-11-09T11:11:45.264Z,14.64
2022-11-09T11:14:21.653Z,14.62
2022-11-09T11:16:53.771Z,14.58
2022-11-09T11:19:31.435Z,14.57
2022-11-09T11:22:19.179Z,14.56
2022-11-09T11:24:54.196Z,14.55
2022-11-09T11:27:28.490Z,14.55
2022-11-09T11:30:04.001Z,14.65
2022-11-09T11:32:33.734Z,14.61
2022-11-09T11:35:04.894Z,14.55
2022-11-09T11:37:47.112Z,14.44
2022-11-09T11:40:20.308Z,14.38
2022-11-09T11:42:58.924Z,14.34
2022-11-09T11:45:41.560Z,14.38
2022-11-09T11:48:24.052Z,14.34
2022-11-09T11:50:58.324Z,14.37
2022-11-09T11:53:38.228Z,14.41
2022-11-09T11:56:21.551Z,14.43
2022-11-09T11:59:02.609Z,14.39
2022-11-09T12:01:40.050Z,14.47
2022-11-09T12:04:22.299Z,14.49
2022-11-09T12:06:59.461Z,14.44
2022-11-09T12:09:34.498Z,14.50
2022-11-09T12:12:13.066Z,14.43
2022-11-09T12:14:50.274Z,14.47
2022-11-09T12:17:27.205Z,14.47
2022-11-09T12:20:04.866Z,14.52
2022-11-09T12:22:40.710Z,14.48
2022-11-09T12:25:15.585Z,14.42
2022-11-09T12:27:55.604Z,14.39
2022-11-09T12:30:29.260Z,14.45
2022-11-09T12:33:01.170Z,14.50
2022-11-09T12:35:33.420Z,14.48
2022-11-09T12:38:06.320Z,14.42
2022-11-09T12:40:38.820Z,14.43
2022-11-09T12:43:16.646Z,14.38
2022-11-09T12:45:49.096Z,14.40
2022-11-09T12:48:22.397Z,14.43
2022-11-09T12:50:52.521Z,14.40
2022-11-09T12:53:25.137Z,14.44
2022-11-09T12:55:57.922Z,14.45
2022-11-09T12:58:29.238Z,14.50
2022-11-09T13:01:00.788Z,14.51
2022-11-09T13:03:31.613Z,14.50
2022-11-09T13:06:17.903Z,14.41
2022-11-09T13:08:58.577Z,14.47
2022-11-09T13:11:34.570Z,14.52
2022-11-09T13:14:23.246Z,14.45
2022-11-09T13:16:55.885Z,14.40
2022-11-09T13:19:41.066Z,14.40
2022-11-09T13:22:38.715Z,14.42
2022-11-09T13:25:35.198Z,14.40
2022-11-09T13:28:05.054Z,14.38
2022-11-09T13:30:40.924Z,14.38
2022-11-09T13:33:28.621Z,14.37
2022-11-09T13:36:13.826Z,14.40
2022-11-09T13:38:43.784Z,14.36
2022-11-09T13:41:33.201Z,14.35
2022-11-09T13:44:15.171Z,14.32
2022-11-09T13:46:46.971Z,14.32
2022-11-09T13:49:35.025Z,14.35
2022-11-09T13:52:05.952Z,14.33
2022-11-09T13:54:36.601Z,14.30
2022-11-09T13:57:07.726Z,14.27
2022-11-09T13:59:40.034Z,14.30
2022-11-09T14:02:16.855Z,14.32
2022-11-09T14:04:46.442Z,14.27
2022-11-09T14:07:21.212Z,14.24
2022-11-09T14:09:54.602Z,14.19
2022-11-09T14:12:31.981Z,14.18
2022-11-09T14:15:10.549Z,14.18
2022-11-09T14:17:44.865Z,14.16
2022-11-09T14:20:21.937Z,14.15
2022-11-09T14:22:53.082Z,14.13
2022-11-09T14:25:23.745Z,14.11
2022-11-09T14:27:57.382Z,14.10
2022-11-09T14:30:28.156Z,14.03
2022-11-09T14:32:58.336Z,13.98
2022-11-09T14:35:29.594Z,13.99
2022-11-09T14:38:02.503Z,13.97
2022-11-09T14:40:33.314Z,13.98
2022-11-09T14:43:06.581Z,13.93
2022-11-09T14:45:36.296Z,13.88
2022-11-09T14:48:06.321Z,13.84
2022-11-09T14:50:37.524Z,13.82
2022-11-09T14:53:09.032Z,13.83
2022-11-09T14:55:39.849Z,13.80
2022-11-09T14:58:12.601Z,13.77
2022-11-09T15:00:45.983Z,13.71
2022-11-09T15:03:23.053Z,13.68
2022-11-09T15:06:03.660Z,13.65
2022-11-09T15:08:35.623Z,13.63
2022-11-09T15:11:05.223Z,13.55
2022-11-09T15:13:37.402Z,13.49
2022-11-09T15:16:08.458Z,13.50
2022-11-09T15:18:42.919Z,13.40
2022-11-09T15:21:13.594Z,13.30
2022-11-09T15:23:45.666Z,13.23
2022-11-09T15:26:29.362Z,13.17
2022-11-09T15:28:58.870Z,13.13
2022-11-09T15:31:28.844Z,13.09
2022-11-09T15:33:58.863Z,13.05
2022-11-09T15:36:33.136Z,13.05
2022-11-09T15:39:09.084Z,13.01
2022-11-09T15:41:38.711Z,12.95
2022-11-09T15:44:08.742Z,12.88
2022-11-09T15:46:40.353Z,12.81
2022-11-09T15:49:17.537Z,12.77
2022-11-09T15:51:47.436Z,12.72
2022-11-09T15:54:18.884Z,12.69
2022-11-09T15:56:48.409Z,12.61
2022-11-09T15:59:20.883Z,12.56
2022-11-09T16:01:50.568Z,12.53
2022-11-09T16:04:20.221Z,12.45
2022-11-09T16:06:49.926Z,12.41
2022-11-09T16:09:20.857Z,12.38
2022-11-09T16:11:53.174Z,12.32
2022-11-09T16:14:23.908Z,12.29
2022-11-09T16:16:54.040Z,12.22
2022-11-09T16:19:23.586Z,12.17
2022-11-09T16:21:53.326Z,12.16
2022-11-09T16:24:24.524Z,12.12
2022-11-09T16:26:54.559Z,12.08
2022-11-09T16:29:25.043Z,12.04
2022-11-09T16:31:54.641Z,12.02
2022-11-09T16:34:24.545Z,12.01
2022-11-09T16:36:56.969Z,11.98
2022-11-09T16:39:28.095Z,11.92
2022-11-09T16:41:57.731Z,11.85
2022-11-09T16:44:31.746Z,11.81
2022-11-09T16:47:03.075Z,11.72
2022-11-09T16:49:32.995Z,11.68
2022-11-09T16:52:02.692Z,11.69
2022-11-09T16:54:33.618Z,11.57
2022-11-09T16:57:03.655Z,11.56
2022-11-09T16:59:33.218Z,11.61
2022-11-09T17:02:03.070Z,11.62
2022-11-09T17:04:32.849Z,11.64
2022-11-09T17:07:02.559Z,11.65
2022-11-09T17:09:35.759Z,11.71
2022-11-09T17:12:06.310Z,11.58
2022-11-09T17:14:36.306Z,11.38
2022-11-09T17:17:06.766Z,11.33
2022-11-09T17:19:36.853Z,11.30
2022-11-09T17:22:06.395Z,11.36
2022-11-09T17:24:40.467Z,11.38
2022-11-09T17:27:10.480Z,11.32
2022-11-09T17:29:42.068Z,11.29
2022-11-09T17:32:12.040Z,11.23
2022-11-09T17:34:41.614Z,11.23
2022-11-09T17:37:11.132Z,11.19
2022-11-09T17:39:41.987Z,11.19
2022-11-09T17:42:11.569Z,11.06
2022-11-09T17:44:41.198Z,11.02
2022-11-09T17:47:10.710Z,11.02
2022-11-09T17:49:40.926Z,11.02
2022-11-09T17:52:10.635Z,11.00
2022-11-09T17:54:40.225Z,11.05
2022-11-09T17:57:11.180Z,10.96
2022-11-09T17:59:40.796Z,10.97
2022-11-09T18:02:10.863Z,10.98
2022-11-09T18:04:41.032Z,10.97
2022-11-09T18:07:10.589Z,10.92
2022-11-09T18:09:42.137Z,10.90
2022-11-09T18:12:16.448Z,10.91
2022-11-09T18:14:45.982Z,10.85
2022-11-09T18:17:15.570Z,10.86
2022-11-09T18:19:45.079Z,10.76
2022-11-09T18:22:14.623Z,10.63
2022-11-09T18:24:44.701Z,10.52
2022-11-09T18:27:15.581Z,10.53
2022-11-09T18:29:45.151Z,10.54
2022-11-09T18:32:14.633Z,10.54
2022-11-09T18:34:44.153Z,10.40
2022-11-09T18:37:13.820Z,10.39
2022-11-09T18:39:43.310Z,10.40
2022-11-09T18:42:12.889Z,10.35
2022-11-09T18:44:44.020Z,10.34
2022-11-09T18:47:15.109Z,10.31
2022-11-09T18:49:44.604Z,10.19
2022-11-09T18:52:14.345Z,10.11
2022-11-09T18:54:44.020Z,10.04
2022-11-09T18:57:18.589Z,10.01
2022-11-09T18:59:50.678Z,10.01
2022-11-09T19:02:21.485Z,9.92
2022-11-09T19:04:51.230Z,9.89
2022-11-09T19:07:21.059Z,9.91
2022-11-09T19:09:55.381Z,9.93
2022-11-09T19:12:26.561Z,9.75
2022-11-09T19:14:57.979Z,9.75
2022-11-09T19:17:27.687Z,9.71
2022-11-09T19:19:57.187Z,9.76
2022-11-09T19:22:28.751Z,9.56
2022-11-09T19:24:58.362Z,9.54
2022-11-09T19:27:28.929Z,9.55
2022-11-09T19:30:00.758Z,9.50
2022-11-09T19:32:33.189Z,9.51
2022-11-09T19:35:02.727Z,9.48
2022-11-09T19:37:32.480Z,9.39
2022-11-09T19:40:02.414Z,9.47
2022-11-09T19:42:31.937Z,9.37
2022-11-09T19:45:02.870Z,9.38
2022-11-09T19:47:32.702Z,9.31
2022-11-09T19:50:02.289Z,9.28
2022-11-09T19:52:32.096Z,9.30
2022-11-09T19:55:01.612Z,9.30
2022-11-09T19:57:31.126Z,9.15
2022-11-09T20:00:02.116Z,9.29
2022-11-09T20:02:32.011Z,9.29
2022-11-09T20:05:01.588Z,9.19
2022-11-09T20:07:32.767Z,9.26
2022-11-09T20:10:03.408Z,9.28
2022-11-09T20:12:51.762Z,9.23
2022-11-09T20:15:23.680Z,9.12
2022-11-09T20:17:53.570Z,9.15
2022-11-09T20:20:23.113Z,9.07
2022-11-09T20:22:52.897Z,9.04
2022-11-09T20:25:22.462Z,8.91
2022-11-09T20:27:51.950Z,9.03
2022-11-09T20:30:21.583Z,9.05
2022-11-09T20:32:52.486Z,8.98
2022-11-09T20:35:22.249Z,8.98
2022-11-09T20:37:51.768Z,8.94
2022-11-09T20:40:21.516Z,8.93
2022-11-09T20:42:51.102Z,8.85
2022-11-09T20:45:20.619Z,8.84
2022-11-09T20:48:10.194Z,8.69
2022-11-09T20:50:41.566Z,8.84
2022-11-09T20:53:11.497Z,8.74
2022-11-09T20:55:41.617Z,8.77
2022-11-09T20:58:12.219Z,8.86
2022-11-09T21:00:41.816Z,8.83
2022-11-09T21:03:11.386Z,8.83
2022-11-09T21:05:45.378Z,8.83
2022-11-09T21:08:17.542Z,8.83
2022-11-09T21:10:47.201Z,8.82
2022-11-09T21:13:17.479Z,8.84
2022-11-09T21:15:47.573Z,8.75
2022-11-09T21:18:17.110Z,8.76
2022-11-09T21:20:48.039Z,8.72
2022-11-09T21:23:49.719Z,8.70
2022-11-09T21:26:50.989Z,8.66
2022-11-09T21:29:46.945Z,8.56
2022-11-09T21:32:16.410Z,8.58
2022-11-09T21:34:45.933Z,8.49
2022-11-09T21:37:17.042Z,8.41
2022-11-09T21:39:46.560Z,8.53
2022-11-09T21:42:16.149Z,8.44
2022-11-09T21:44:45.693Z,8.51
2022-11-09T21:47:15.321Z,8.48
2022-11-09T21:49:44.845Z,8.42
2022-11-09T21:52:14.344Z,8.11
2022-11-09T21:54:45.441Z,8.08
2022-11-09T21:57:15.022Z,8.18
2022-11-09T21:59:44.554Z,8.28
2022-11-09T22:02:14.024Z,8.16
2022-11-09T22:04:43.487Z,8.29
2022-11-09T22:07:13.087Z,8.32
2022-11-09T22:10:09.404Z,8.35
2022-11-09T22:12:57.761Z,8.33
2022-11-09T22:15:45.155Z,8.36
2022-11-09T22:18:34.788Z,8.16
2022-11-09T22:21:03.410Z,8.10
2022-11-09T22:23:33.636Z,7.98
2022-11-09T22:26:04.519Z,8.04
2022-11-09T22:28:34.374Z,7.98
2022-11-09T22:31:03.946Z,8.01
2022-11-09T22:33:34.178Z,7.97
2022-11-09T22:36:05.254Z,7.96
2022-11-09T22:38:35.123Z,7.94
2022-11-09T22:41:07.109Z,7.99
2022-11-09T22:43:37.381Z,7.92
2022-11-09T22:46:07.641Z,7.81
2022-11-09T22:48:37.678Z,7.88
2022-11-09T22:51:07.451Z,7.83
2022-11-09T22:53:37.055Z,7.73
2022-11-09T22:56:10.925Z,7.81
2022-11-09T22:58:40.478Z,7.83
2022-11-09T23:01:12.792Z,7.78
2022-11-09T23:03:42.816Z,7.77
2022-11-09T23:06:16.176Z,7.75
2022-11-09T23:08:45.768Z,7.80
2022-11-09T23:11:18.346Z,7.77
2022-11-09T23:13:49.963Z,7.59
2022-11-09T23:16:20.334Z,7.42
2022-11-09T23:18:54.817Z,7.67
2022-11-09T23:21:25.335Z,7.70
2022-11-09T23:23:55.909Z,7.57
2022-11-09T23:26:27.062Z,7.45
2022-11-09T23:28:56.730Z,7.55
2022-11-09T23:31:27.071Z,7.47
2022-11-09T23:33:58.053Z,7.47
2022-11-09T23:36:27.760Z,7.42
2022-11-09T23:38:57.314Z,7.11
2022-11-09T23:41:28.202Z,7.13
2022-11-09T23:43:57.780Z,7.17
2022-11-09T23:46:27.219Z,7.15
2022-11-09T23:48:56.703Z,7.24
2022-11-09T23:51:26.281Z,7.12
2022-11-09T23:53:55.765Z,7.22
2022-11-09T23:56:25.422Z,7.24
2022-11-09T23:58:56.339Z,7.08
